sensor_id;sensor_type;location;lat;lon;timestamp;P1;durP1;ratioP1;P2;durP2;ratioP2
24555;SDS011;12725;49.440;10.954;2023-06-22T00:03:12;5.20;;;3.33;;
24555;SDS011;12725;49.440;10.954;2023-06-22T00:07:12;7.00;;;3.00;;
24555;SDS011;12725;49.440;10.954;2023-06-22T00:11:12;9.82;;;4.50;;
24555;SDS011;12725;49.440;10.954;2023-06-22T00:15:13;6.20;;;3.50;;
24555;SDS011;12725;49.440;10.954;2023-06-22T00:19:13;7.97;;;4.38;;
24555;SDS011;12725;49.440;10.954;2023-06-22T00:23:14;6.85;;;2.90;;
24555;SDS011;12725;49.440;10.954;2023-06-22T00:27:15;4.15;;;3.05;;
24555;SDS011;12725;49.440;10.954;2023-06-22T00:31:16;4.27;;;2.93;;
24555;SDS011;12725;49.440;10.954;2023-06-22T00:35:16;5.53;;;2.93;;
24555;SDS011;12725;49.440;10.954;2023-06-22T00:39:16;6.67;;;3.97;;
24555;SDS011;12725;49.440;10.954;2023-06-22T00:43:17;6.03;;;3.90;;
24555;SDS011;12725;49.440;10.954;2023-06-22T00:47:17;6.90;;;3.57;;
24555;SDS011;12725;49.440;10.954;2023-06-22T00:51:18;7.30;;;3.75;;
24555;SDS011;12725;49.440;10.954;2023-06-22T00:55:20;5.63;;;3.22;;
24555;SDS011;12725;49.440;10.954;2023-06-22T00:59:21;6.32;;;3.55;;
24555;SDS011;12725;49.440;10.954;2023-06-22T01:03:22;10.10;;;3.58;;
24555;SDS011;12725;49.440;10.954;2023-06-22T01:07:31;5.13;;;3.60;;
24555;SDS011;12725;49.440;10.954;2023-06-22T01:11:40;11.65;;;3.80;;
24555;SDS011;12725;49.440;10.954;2023-06-22T01:15:46;5.40;;;2.88;;
24555;SDS011;12725;49.440;10.954;2023-06-22T01:19:52;5.68;;;3.58;;
24555;SDS011;12725;49.440;10.954;2023-06-22T01:24:02;6.00;;;3.45;;
24555;SDS011;12725;49.440;10.954;2023-06-22T01:28:17;15.15;;;3.65;;
24555;SDS011;12725;49.440;10.954;2023-06-22T01:32:23;8.50;;;3.95;;
24555;SDS011;12725;49.440;10.954;2023-06-22T01:36:23;5.60;;;3.83;;
24555;SDS011;12725;49.440;10.954;2023-06-22T01:40:24;10.10;;;4.40;;
24555;SDS011;12725;49.440;10.954;2023-06-22T01:44:25;5.80;;;3.08;;
24555;SDS011;12725;49.440;10.954;2023-06-22T01:48:25;5.18;;;3.17;;
24555;SDS011;12725;49.440;10.954;2023-06-22T01:52:26;7.68;;;3.67;;
24555;SDS011;12725;49.440;10.954;2023-06-22T01:56:26;7.20;;;3.00;;
24555;SDS011;12725;49.440;10.954;2023-06-22T02:00:27;5.90;;;3.03;;
24555;SDS011;12725;49.440;10.954;2023-06-22T02:04:42;5.10;;;3.40;;
24555;SDS011;12725;49.440;10.954;2023-06-22T02:08:51;5.60;;;3.30;;
24555;SDS011;12725;49.440;10.954;2023-06-22T02:12:54;5.43;;;3.28;;
24555;SDS011;12725;49.440;10.954;2023-06-22T02:16:55;5.05;;;4.05;;
24555;SDS011;12725;49.440;10.954;2023-06-22T02:20:59;5.65;;;4.13;;
24555;SDS011;12725;49.440;10.954;2023-06-22T02:24:59;4.82;;;3.42;;
24555;SDS011;12725;49.440;10.954;2023-06-22T02:29:00;4.95;;;3.42;;
24555;SDS011;12725;49.440;10.954;2023-06-22T02:33:00;7.27;;;4.17;;
24555;SDS011;12725;49.440;10.954;2023-06-22T02:37:00;11.65;;;4.15;;
24555;SDS011;12725;49.440;10.954;2023-06-22T02:41:01;6.80;;;3.95;;
24555;SDS011;12725;49.440;10.954;2023-06-22T02:45:02;4.82;;;3.22;;
24555;SDS011;12725;49.440;10.954;2023-06-22T02:49:02;9.68;;;3.85;;
24555;SDS011;12725;49.440;10.954;2023-06-22T02:53:03;14.37;;;3.90;;
24555;SDS011;12725;49.440;10.954;2023-06-22T02:57:03;7.07;;;3.53;;
24555;SDS011;12725;49.440;10.954;2023-06-22T03:01:04;8.85;;;4.95;;
24555;SDS011;12725;49.440;10.954;2023-06-22T03:05:05;9.52;;;3.97;;
24555;SDS011;12725;49.440;10.954;2023-06-22T03:09:06;13.13;;;4.22;;
24555;SDS011;12725;49.440;10.954;2023-06-22T03:13:07;9.40;;;4.18;;
24555;SDS011;12725;49.440;10.954;2023-06-22T03:17:08;4.50;;;3.10;;
24555;SDS011;12725;49.440;10.954;2023-06-22T03:21:10;5.22;;;3.55;;
24555;SDS011;12725;49.440;10.954;2023-06-22T03:25:11;8.87;;;4.50;;
24555;SDS011;12725;49.440;10.954;2023-06-22T03:29:13;5.68;;;3.80;;
24555;SDS011;12725;49.440;10.954;2023-06-22T03:33:13;5.65;;;3.58;;
24555;SDS011;12725;49.440;10.954;2023-06-22T03:37:14;7.00;;;3.73;;
24555;SDS011;12725;49.440;10.954;2023-06-22T03:41:14;7.88;;;4.65;;
24555;SDS011;12725;49.440;10.954;2023-06-22T03:45:15;6.07;;;3.78;;
24555;SDS011;12725;49.440;10.954;2023-06-22T03:49:15;4.63;;;3.22;;
24555;SDS011;12725;49.440;10.954;2023-06-22T03:53:16;5.20;;;3.63;;
24555;SDS011;12725;49.440;10.954;2023-06-22T03:57:16;6.00;;;4.45;;
24555;SDS011;12725;49.440;10.954;2023-06-22T04:01:16;9.63;;;3.50;;
24555;SDS011;12725;49.440;10.954;2023-06-22T04:05:17;7.43;;;4.22;;
24555;SDS011;12725;49.440;10.954;2023-06-22T04:09:19;7.18;;;4.38;;
24555;SDS011;12725;49.440;10.954;2023-06-22T04:13:19;8.40;;;4.75;;
24555;SDS011;12725;49.440;10.954;2023-06-22T04:17:19;9.23;;;4.75;;
24555;SDS011;12725;49.440;10.954;2023-06-22T04:21:20;9.38;;;4.65;;
24555;SDS011;12725;49.440;10.954;2023-06-22T04:25:22;8.75;;;4.15;;
24555;SDS011;12725;49.440;10.954;2023-06-22T04:29:22;10.15;;;4.25;;
24555;SDS011;12725;49.440;10.954;2023-06-22T04:33:28;5.47;;;4.15;;
24555;SDS011;12725;49.440;10.954;2023-06-22T04:37:32;8.10;;;5.32;;
24555;SDS011;12725;49.440;10.954;2023-06-22T04:41:33;8.38;;;4.47;;
24555;SDS011;12725;49.440;10.954;2023-06-22T04:45:41;6.95;;;4.05;;
24555;SDS011;12725;49.440;10.954;2023-06-22T04:49:42;5.83;;;4.20;;
24555;SDS011;12725;49.440;10.954;2023-06-22T04:53:43;8.35;;;4.88;;
24555;SDS011;12725;49.440;10.954;2023-06-22T04:57:44;7.77;;;4.77;;
24555;SDS011;12725;49.440;10.954;2023-06-22T05:01:48;6.68;;;4.53;;
24555;SDS011;12725;49.440;10.954;2023-06-22T05:05:52;6.78;;;4.22;;
24555;SDS011;12725;49.440;10.954;2023-06-22T05:09:52;11.48;;;4.93;;
24555;SDS011;12725;49.440;10.954;2023-06-22T05:13:53;4.45;;;3.17;;
24555;SDS011;12725;49.440;10.954;2023-06-22T05:17:54;6.57;;;3.85;;
24555;SDS011;12725;49.440;10.954;2023-06-22T05:21:54;6.38;;;4.38;;
24555;SDS011;12725;49.440;10.954;2023-06-22T05:25:54;8.33;;;4.37;;
24555;SDS011;12725;49.440;10.954;2023-06-22T05:29:57;6.75;;;4.32;;
24555;SDS011;12725;49.440;10.954;2023-06-22T05:33:57;5.83;;;4.33;;
24555;SDS011;12725;49.440;10.954;2023-06-22T05:37:59;9.68;;;4.07;;
24555;SDS011;12725;49.440;10.954;2023-06-22T05:42:00;6.63;;;3.83;;
24555;SDS011;12725;49.440;10.954;2023-06-22T05:46:01;7.30;;;4.60;;
24555;SDS011;12725;49.440;10.954;2023-06-22T05:50:01;13.23;;;4.28;;
24555;SDS011;12725;49.440;10.954;2023-06-22T05:54:06;6.28;;;3.72;;
24555;SDS011;12725;49.440;10.954;2023-06-22T05:58:08;8.25;;;3.55;;
24555;SDS011;12725;49.440;10.954;2023-06-22T06:02:08;6.43;;;3.95;;
24555;SDS011;12725;49.440;10.954;2023-06-22T06:06:08;5.40;;;3.67;;
24555;SDS011;12725;49.440;10.954;2023-06-22T06:10:10;4.82;;;3.88;;
24555;SDS011;12725;49.440;10.954;2023-06-22T06:14:11;12.20;;;3.30;;
24555;SDS011;12725;49.440;10.954;2023-06-22T06:18:11;6.10;;;3.67;;
24555;SDS011;12725;49.440;10.954;2023-06-22T06:22:11;6.87;;;3.80;;
24555;SDS011;12725;49.440;10.954;2023-06-22T06:26:12;6.75;;;3.58;;
24555;SDS011;12725;49.440;10.954;2023-06-22T06:30:13;4.55;;;2.75;;
24555;SDS011;12725;49.440;10.954;2023-06-22T06:34:14;4.10;;;2.90;;
24555;SDS011;12725;49.440;10.954;2023-06-22T06:38:14;4.40;;;3.30;;
24555;SDS011;12725;49.440;10.954;2023-06-22T06:42:15;4.88;;;3.15;;
24555;SDS011;12725;49.440;10.954;2023-06-22T06:46:15;4.53;;;3.17;;
24555;SDS011;12725;49.440;10.954;2023-06-22T06:50:16;4.28;;;3.13;;
24555;SDS011;12725;49.440;10.954;2023-06-22T06:54:17;5.35;;;2.88;;
24555;SDS011;12725;49.440;10.954;2023-06-22T06:58:20;4.93;;;2.97;;
24555;SDS011;12725;49.440;10.954;2023-06-22T07:02:23;3.78;;;3.00;;
24555;SDS011;12725;49.440;10.954;2023-06-22T07:06:23;4.07;;;2.75;;
24555;SDS011;12725;49.440;10.954;2023-06-22T07:10:29;6.45;;;3.35;;
24555;SDS011;12725;49.440;10.954;2023-06-22T07:14:29;6.45;;;3.70;;
24555;SDS011;12725;49.440;10.954;2023-06-22T07:18:31;4.80;;;2.88;;
24555;SDS011;12725;49.440;10.954;2023-06-22T07:22:32;4.43;;;3.33;;
24555;SDS011;12725;49.440;10.954;2023-06-22T07:26:32;4.07;;;3.17;;
24555;SDS011;12725;49.440;10.954;2023-06-22T07:30:33;4.72;;;2.70;;
24555;SDS011;12725;49.440;10.954;2023-06-22T07:34:33;3.15;;;2.25;;
24555;SDS011;12725;49.440;10.954;2023-06-22T07:38:34;6.90;;;2.63;;
24555;SDS011;12725;49.440;10.954;2023-06-22T07:42:35;4.22;;;2.58;;
24555;SDS011;12725;49.440;10.954;2023-06-22T07:46:35;3.93;;;2.57;;
24555;SDS011;12725;49.440;10.954;2023-06-22T07:50:35;3.30;;;2.50;;
24555;SDS011;12725;49.440;10.954;2023-06-22T07:54:36;2.60;;;2.40;;
24555;SDS011;12725;49.440;10.954;2023-06-22T07:58:36;2.67;;;2.03;;
24555;SDS011;12725;49.440;10.954;2023-06-22T08:02:37;2.40;;;1.70;;
24555;SDS011;12725;49.440;10.954;2023-06-22T08:06:37;5.30;;;1.77;;
24555;SDS011;12725;49.440;10.954;2023-06-22T08:10:37;2.70;;;1.80;;
24555;SDS011;12725;49.440;10.954;2023-06-22T08:14:38;2.72;;;1.80;;
24555;SDS011;12725;49.440;10.954;2023-06-22T08:18:38;2.28;;;1.83;;
24555;SDS011;12725;49.440;10.954;2023-06-22T08:22:42;4.90;;;2.20;;
24555;SDS011;12725;49.440;10.954;2023-06-22T08:26:43;2.13;;;1.80;;
24555;SDS011;12725;49.440;10.954;2023-06-22T08:30:43;2.80;;;1.67;;
24555;SDS011;12725;49.440;10.954;2023-06-22T08:34:43;1.97;;;1.63;;
24555;SDS011;12725;49.440;10.954;2023-06-22T08:38:44;2.83;;;2.03;;
24555;SDS011;12725;49.440;10.954;2023-06-22T08:42:45;3.25;;;2.50;;
24555;SDS011;12725;49.440;10.954;2023-06-22T08:46:46;2.63;;;1.70;;
24555;SDS011;12725;49.440;10.954;2023-06-22T08:50:47;2.37;;;2.00;;
24555;SDS011;12725;49.440;10.954;2023-06-22T08:54:47;3.67;;;2.40;;
24555;SDS011;12725;49.440;10.954;2023-06-22T08:58:47;2.05;;;1.85;;
24555;SDS011;12725;49.440;10.954;2023-06-22T09:02:48;3.57;;;1.73;;
24555;SDS011;12725;49.440;10.954;2023-06-22T09:06:48;2.55;;;1.90;;
24555;SDS011;12725;49.440;10.954;2023-06-22T09:10:50;2.72;;;2.15;;
24555;SDS011;12725;49.440;10.954;2023-06-22T09:14:50;4.70;;;2.37;;
24555;SDS011;12725;49.440;10.954;2023-06-22T09:18:50;2.20;;;1.87;;
24555;SDS011;12725;49.440;10.954;2023-06-22T09:22:50;2.73;;;2.07;;
24555;SDS011;12725;49.440;10.954;2023-06-22T09:26:51;9.13;;;2.42;;
24555;SDS011;12725;49.440;10.954;2023-06-22T09:30:51;4.23;;;1.60;;
24555;SDS011;12725;49.440;10.954;2023-06-22T09:34:56;4.63;;;2.20;;
24555;SDS011;12725;49.440;10.954;2023-06-22T09:38:57;2.35;;;1.90;;
24555;SDS011;12725;49.440;10.954;2023-06-22T09:42:58;2.95;;;2.08;;
24555;SDS011;12725;49.440;10.954;2023-06-22T09:46:59;6.17;;;2.00;;
24555;SDS011;12725;49.440;10.954;2023-06-22T09:50:59;1.38;;;1.15;;
24555;SDS011;12725;49.440;10.954;2023-06-22T09:55:00;3.88;;;2.60;;
24555;SDS011;12725;49.440;10.954;2023-06-22T09:59:00;4.07;;;1.90;;
24555;SDS011;12725;49.440;10.954;2023-06-22T10:03:01;2.92;;;1.67;;
24555;SDS011;12725;49.440;10.954;2023-06-22T10:07:01;3.00;;;2.10;;
24555;SDS011;12725;49.440;10.954;2023-06-22T10:11:05;2.17;;;1.58;;
24555;SDS011;12725;49.440;10.954;2023-06-22T10:15:06;2.10;;;1.63;;
24555;SDS011;12725;49.440;10.954;2023-06-22T10:19:07;2.47;;;1.67;;
24555;SDS011;12725;49.440;10.954;2023-06-22T10:23:07;1.90;;;1.70;;
24555;SDS011;12725;49.440;10.954;2023-06-22T10:27:07;1.87;;;1.63;;
24555;SDS011;12725;49.440;10.954;2023-06-22T10:31:08;4.80;;;1.73;;
24555;SDS011;12725;49.440;10.954;2023-06-22T10:35:08;2.83;;;2.10;;
24555;SDS011;12725;49.440;10.954;2023-06-22T10:39:10;2.40;;;1.55;;
24555;SDS011;12725;49.440;10.954;2023-06-22T10:43:11;2.30;;;1.80;;
24555;SDS011;12725;49.440;10.954;2023-06-22T10:47:11;2.63;;;2.07;;
24555;SDS011;12725;49.440;10.954;2023-06-22T10:51:11;2.10;;;1.80;;
24555;SDS011;12725;49.440;10.954;2023-06-22T10:55:12;3.47;;;1.90;;
24555;SDS011;12725;49.440;10.954;2023-06-22T10:59:12;2.70;;;1.80;;
24555;SDS011;12725;49.440;10.954;2023-06-22T11:03:12;4.30;;;1.90;;
24555;SDS011;12725;49.440;10.954;2023-06-22T11:07:15;2.10;;;1.48;;
24555;SDS011;12725;49.440;10.954;2023-06-22T11:11:15;6.18;;;2.03;;
24555;SDS011;12725;49.440;10.954;2023-06-22T11:15:17;3.90;;;2.15;;
24555;SDS011;12725;49.440;10.954;2023-06-22T11:19:18;5.40;;;3.00;;
24555;SDS011;12725;49.440;10.954;2023-06-22T11:23:18;7.00;;;1.73;;
24555;SDS011;12725;49.440;10.954;2023-06-22T11:27:19;3.28;;;1.95;;
24555;SDS011;12725;49.440;10.954;2023-06-22T11:31:19;4.43;;;2.47;;
24555;SDS011;12725;49.440;10.954;2023-06-22T11:35:20;3.57;;;2.53;;
24555;SDS011;12725;49.440;10.954;2023-06-22T11:39:20;4.00;;;1.70;;
24555;SDS011;12725;49.440;10.954;2023-06-22T11:43:20;3.60;;;2.33;;
24555;SDS011;12725;49.440;10.954;2023-06-22T11:47:21;4.57;;;1.87;;
24555;SDS011;12725;49.440;10.954;2023-06-22T11:51:21;3.07;;;1.90;;
24555;SDS011;12725;49.440;10.954;2023-06-22T11:55:21;2.60;;;1.80;;
24555;SDS011;12725;49.440;10.954;2023-06-22T11:59:22;1.60;;;1.50;;
24555;SDS011;12725;49.440;10.954;2023-06-22T12:03:22;4.80;;;2.37;;
24555;SDS011;12725;49.440;10.954;2023-06-22T12:07:22;3.53;;;2.13;;
24555;SDS011;12725;49.440;10.954;2023-06-22T12:11:23;5.10;;;2.53;;
24555;SDS011;12725;49.440;10.954;2023-06-22T12:15:23;6.77;;;2.33;;
24555;SDS011;12725;49.440;10.954;2023-06-22T12:19:24;2.38;;;2.00;;
24555;SDS011;12725;49.440;10.954;2023-06-22T12:23:24;2.63;;;1.73;;
24555;SDS011;12725;49.440;10.954;2023-06-22T12:27:25;3.80;;;2.00;;
24555;SDS011;12725;49.440;10.954;2023-06-22T12:31:25;2.80;;;1.98;;
24555;SDS011;12725;49.440;10.954;2023-06-22T12:35:26;2.90;;;1.80;;
24555;SDS011;12725;49.440;10.954;2023-06-22T12:39:26;2.90;;;2.43;;
24555;SDS011;12725;49.440;10.954;2023-06-22T12:43:26;4.83;;;2.10;;
24555;SDS011;12725;49.440;10.954;2023-06-22T12:47:26;3.33;;;1.77;;
24555;SDS011;12725;49.440;10.954;2023-06-22T12:51:27;3.80;;;1.67;;
24555;SDS011;12725;49.440;10.954;2023-06-22T12:55:27;2.53;;;1.83;;
24555;SDS011;12725;49.440;10.954;2023-06-22T12:59:28;5.40;;;2.47;;
24555;SDS011;12725;49.440;10.954;2023-06-22T13:03:28;5.03;;;2.07;;
24555;SDS011;12725;49.440;10.954;2023-06-22T13:07:28;2.60;;;2.00;;
24555;SDS011;12725;49.440;10.954;2023-06-22T13:11:29;4.83;;;1.93;;
24555;SDS011;12725;49.440;10.954;2023-06-22T13:15:29;3.13;;;1.60;;
24555;SDS011;12725;49.440;10.954;2023-06-22T13:19:29;2.97;;;2.00;;
24555;SDS011;12725;49.440;10.954;2023-06-22T13:23:32;4.30;;;2.53;;
24555;SDS011;12725;49.440;10.954;2023-06-22T13:27:33;5.45;;;2.33;;
24555;SDS011;12725;49.440;10.954;2023-06-22T13:31:34;3.00;;;1.80;;
24555;SDS011;12725;49.440;10.954;2023-06-22T13:35:34;3.13;;;2.23;;
24555;SDS011;12725;49.440;10.954;2023-06-22T13:39:37;4.40;;;2.30;;
24555;SDS011;12725;49.440;10.954;2023-06-22T13:43:38;8.90;;;2.17;;
24555;SDS011;12725;49.440;10.954;2023-06-22T13:47:39;3.35;;;1.73;;
24555;SDS011;12725;49.440;10.954;2023-06-22T13:51:39;3.47;;;1.75;;
24555;SDS011;12725;49.440;10.954;2023-06-22T13:55:40;2.47;;;1.77;;
24555;SDS011;12725;49.440;10.954;2023-06-22T13:59:40;2.53;;;1.77;;
24555;SDS011;12725;49.440;10.954;2023-06-22T14:03:40;2.03;;;1.90;;
24555;SDS011;12725;49.440;10.954;2023-06-22T14:07:41;3.50;;;2.10;;
24555;SDS011;12725;49.440;10.954;2023-06-22T14:11:41;8.03;;;2.93;;
24555;SDS011;12725;49.440;10.954;2023-06-22T14:15:41;8.97;;;2.03;;
24555;SDS011;12725;49.440;10.954;2023-06-22T14:19:42;3.10;;;2.20;;
24555;SDS011;12725;49.440;10.954;2023-06-22T14:23:43;3.63;;;2.23;;
24555;SDS011;12725;49.440;10.954;2023-06-22T14:27:49;4.40;;;2.13;;
24555;SDS011;12725;49.440;10.954;2023-06-22T14:31:49;5.10;;;2.43;;
24555;SDS011;12725;49.440;10.954;2023-06-22T14:35:49;5.60;;;2.20;;
24555;SDS011;12725;49.440;10.954;2023-06-22T14:39:50;5.35;;;2.45;;
24555;SDS011;12725;49.440;10.954;2023-06-22T14:43:50;4.40;;;1.83;;
24555;SDS011;12725;49.440;10.954;2023-06-22T14:47:50;5.27;;;2.13;;
24555;SDS011;12725;49.440;10.954;2023-06-22T14:51:51;4.40;;;2.63;;
24555;SDS011;12725;49.440;10.954;2023-06-22T14:55:54;3.70;;;2.08;;
24555;SDS011;12725;49.440;10.954;2023-06-22T14:59:54;4.22;;;1.83;;
24555;SDS011;12725;49.440;10.954;2023-06-22T15:03:55;2.20;;;2.00;;
24555;SDS011;12725;49.440;10.954;2023-06-22T15:07:56;8.57;;;2.90;;
24555;SDS011;12725;49.440;10.954;2023-06-22T15:11:56;2.90;;;1.83;;
24555;SDS011;12725;49.440;10.954;2023-06-22T15:15:57;4.30;;;2.03;;
24555;SDS011;12725;49.440;10.954;2023-06-22T15:19:58;3.03;;;1.83;;
24555;SDS011;12725;49.440;10.954;2023-06-22T15:23:58;3.45;;;1.83;;
24555;SDS011;12725;49.440;10.954;2023-06-22T15:27:59;5.47;;;1.92;;
24555;SDS011;12725;49.440;10.954;2023-06-22T15:31:59;1.67;;;1.43;;
24555;SDS011;12725;49.440;10.954;2023-06-22T15:36:00;2.47;;;1.73;;
24555;SDS011;12725;49.440;10.954;2023-06-22T15:40:04;8.05;;;2.63;;
24555;SDS011;12725;49.440;10.954;2023-06-22T15:44:05;2.85;;;1.90;;
24555;SDS011;12725;49.440;10.954;2023-06-22T15:48:05;5.60;;;2.37;;
24555;SDS011;12725;49.440;10.954;2023-06-22T15:52:06;3.35;;;2.28;;
24555;SDS011;12725;49.440;10.954;2023-06-22T15:56:06;3.42;;;1.80;;
24555;SDS011;12725;49.440;10.954;2023-06-22T16:00:09;4.25;;;1.83;;
24555;SDS011;12725;49.440;10.954;2023-06-22T16:04:13;4.75;;;2.17;;
24555;SDS011;12725;49.440;10.954;2023-06-22T16:08:14;4.50;;;1.97;;
24555;SDS011;12725;49.440;10.954;2023-06-22T16:12:14;1.80;;;1.47;;
24555;SDS011;12725;49.440;10.954;2023-06-22T16:16:15;3.78;;;1.70;;
24555;SDS011;12725;49.440;10.954;2023-06-22T16:20:16;3.40;;;1.88;;
24555;SDS011;12725;49.440;10.954;2023-06-22T16:24:17;3.15;;;2.03;;
24555;SDS011;12725;49.440;10.954;2023-06-22T16:28:17;5.00;;;1.90;;
24555;SDS011;12725;49.440;10.954;2023-06-22T16:32:18;5.57;;;2.27;;
24555;SDS011;12725;49.440;10.954;2023-06-22T16:36:18;1.73;;;1.60;;
24555;SDS011;12725;49.440;10.954;2023-06-22T16:40:18;4.20;;;1.90;;
24555;SDS011;12725;49.440;10.954;2023-06-22T16:44:20;2.22;;;1.80;;
24555;SDS011;12725;49.440;10.954;2023-06-22T16:48:20;5.70;;;1.83;;
24555;SDS011;12725;49.440;10.954;2023-06-22T16:52:21;3.33;;;2.00;;
24555;SDS011;12725;49.440;10.954;2023-06-22T16:56:25;2.90;;;1.67;;
24555;SDS011;12725;49.440;10.954;2023-06-22T17:00:26;1.63;;;1.33;;
24555;SDS011;12725;49.440;10.954;2023-06-22T17:04:27;2.43;;;1.77;;
24555;SDS011;12725;49.440;10.954;2023-06-22T17:08:30;6.72;;;2.90;;
24555;SDS011;12725;49.440;10.954;2023-06-22T17:12:33;2.92;;;2.08;;
24555;SDS011;12725;49.440;10.954;2023-06-22T17:16:33;3.15;;;1.40;;
24555;SDS011;12725;49.440;10.954;2023-06-22T17:20:35;3.03;;;1.70;;
24555;SDS011;12725;49.440;10.954;2023-06-22T17:24:36;2.28;;;1.55;;
24555;SDS011;12725;49.440;10.954;2023-06-22T17:28:46;2.85;;;1.83;;
24555;SDS011;12725;49.440;10.954;2023-06-22T17:32:50;2.42;;;1.80;;
24555;SDS011;12725;49.440;10.954;2023-06-22T17:36:51;3.33;;;1.88;;
24555;SDS011;12725;49.440;10.954;2023-06-22T17:40:51;3.88;;;1.63;;
24555;SDS011;12725;49.440;10.954;2023-06-22T17:44:52;5.20;;;1.63;;
24555;SDS011;12725;49.440;10.954;2023-06-22T17:49:00;4.35;;;2.55;;
24555;SDS011;12725;49.440;10.954;2023-06-22T17:53:01;7.25;;;2.05;;
24555;SDS011;12725;49.440;10.954;2023-06-22T17:57:03;3.13;;;2.17;;
24555;SDS011;12725;49.440;10.954;2023-06-22T18:01:14;7.50;;;2.45;;
24555;SDS011;12725;49.440;10.954;2023-06-22T18:05:14;3.17;;;1.87;;
24555;SDS011;12725;49.440;10.954;2023-06-22T18:09:15;5.25;;;2.63;;
24555;SDS011;12725;49.440;10.954;2023-06-22T18:13:17;5.22;;;1.85;;
24555;SDS011;12725;49.440;10.954;2023-06-22T18:17:18;3.30;;;1.63;;
24555;SDS011;12725;49.440;10.954;2023-06-22T18:21:20;2.85;;;1.80;;
24555;SDS011;12725;49.440;10.954;2023-06-22T18:25:21;4.28;;;2.08;;
24555;SDS011;12725;49.440;10.954;2023-06-22T18:29:21;6.65;;;2.25;;
24555;SDS011;12725;49.440;10.954;2023-06-22T18:33:22;2.77;;;1.80;;
24555;SDS011;12725;49.440;10.954;2023-06-22T18:37:23;2.95;;;2.08;;
24555;SDS011;12725;49.440;10.954;2023-06-22T18:41:24;7.70;;;2.10;;
24555;SDS011;12725;49.440;10.954;2023-06-22T18:45:32;3.28;;;2.10;;
24555;SDS011;12725;49.440;10.954;2023-06-22T18:49:44;2.25;;;1.45;;
24555;SDS011;12725;49.440;10.954;2023-06-22T18:53:49;2.55;;;1.63;;
24555;SDS011;12725;49.440;10.954;2023-06-22T19:10:51;4.40;;;2.22;;
24555;SDS011;12725;49.440;10.954;2023-06-22T19:15:02;2.92;;;1.67;;
24555;SDS011;12725;49.440;10.954;2023-06-22T19:19:15;2.35;;;1.83;;
24555;SDS011;12725;49.440;10.954;2023-06-22T19:23:28;4.88;;;2.33;;
24555;SDS011;12725;49.440;10.954;2023-06-22T19:27:30;1.60;;;1.02;;
24555;SDS011;12725;49.440;10.954;2023-06-22T19:31:31;1.98;;;1.48;;
24555;SDS011;12725;49.440;10.954;2023-06-22T19:35:31;6.70;;;1.95;;
24555;SDS011;12725;49.440;10.954;2023-06-22T19:39:35;3.15;;;1.40;;
24555;SDS011;12725;49.440;10.954;2023-06-22T19:43:36;5.20;;;1.50;;
24555;SDS011;12725;49.440;10.954;2023-06-22T19:47:36;4.10;;;2.03;;
24555;SDS011;12725;49.440;10.954;2023-06-22T19:51:38;4.00;;;1.73;;
24555;SDS011;12725;49.440;10.954;2023-06-22T19:55:39;5.63;;;1.70;;
24555;SDS011;12725;49.440;10.954;2023-06-22T19:59:41;4.72;;;1.98;;
24555;SDS011;12725;49.440;10.954;2023-06-22T20:03:44;10.38;;;2.65;;
24555;SDS011;12725;49.440;10.954;2023-06-22T20:07:45;2.78;;;1.63;;
24555;SDS011;12725;49.440;10.954;2023-06-22T20:11:45;2.25;;;1.80;;
24555;SDS011;12725;49.440;10.954;2023-06-22T20:15:46;4.27;;;1.90;;
24555;SDS011;12725;49.440;10.954;2023-06-22T20:19:52;4.72;;;1.90;;
24555;SDS011;12725;49.440;10.954;2023-06-22T20:23:53;3.00;;;1.27;;
24555;SDS011;12725;49.440;10.954;2023-06-22T20:27:54;3.20;;;1.40;;
24555;SDS011;12725;49.440;10.954;2023-06-22T20:36:24;14.73;;;2.72;;
24555;SDS011;12725;49.440;10.954;2023-06-22T20:40:25;5.90;;;1.87;;
24555;SDS011;12725;49.440;10.954;2023-06-22T20:44:28;5.18;;;1.77;;
24555;SDS011;12725;49.440;10.954;2023-06-22T20:48:28;5.43;;;2.10;;
24555;SDS011;12725;49.440;10.954;2023-06-22T20:52:29;8.10;;;2.50;;
24555;SDS011;12725;49.440;10.954;2023-06-22T20:56:30;5.30;;;1.53;;
24555;SDS011;12725;49.440;10.954;2023-06-22T21:00:33;4.60;;;2.40;;
24555;SDS011;12725;49.440;10.954;2023-06-22T21:04:38;12.70;;;2.33;;
24555;SDS011;12725;49.440;10.954;2023-06-22T21:08:41;5.38;;;2.00;;
24555;SDS011;12725;49.440;10.954;2023-06-22T21:12:42;6.77;;;2.63;;
24555;SDS011;12725;49.440;10.954;2023-06-22T21:16:42;5.82;;;2.15;;
24555;SDS011;12725;49.440;10.954;2023-06-22T21:20:42;2.57;;;1.43;;
24555;SDS011;12725;49.440;10.954;2023-06-22T21:24:43;6.23;;;3.30;;
24555;SDS011;12725;49.440;10.954;2023-06-22T21:28:44;14.75;;;1.85;;
24555;SDS011;12725;49.440;10.954;2023-06-22T21:32:45;3.03;;;2.00;;
24555;SDS011;12725;49.440;10.954;2023-06-22T21:36:45;5.87;;;2.77;;
24555;SDS011;12725;49.440;10.954;2023-06-22T21:40:45;10.23;;;3.08;;
24555;SDS011;12725;49.440;10.954;2023-06-22T21:44:46;2.15;;;1.95;;
24555;SDS011;12725;49.440;10.954;2023-06-22T21:48:46;9.47;;;2.20;;
24555;SDS011;12725;49.440;10.954;2023-06-22T21:52:47;8.18;;;2.60;;
24555;SDS011;12725;49.440;10.954;2023-06-22T21:56:47;5.80;;;2.72;;
24555;SDS011;12725;49.440;10.954;2023-06-22T22:00:47;1.60;;;1.50;;
24555;SDS011;12725;49.440;10.954;2023-06-22T22:04:48;2.30;;;1.50;;
24555;SDS011;12725;49.440;10.954;2023-06-22T22:08:51;10.40;;;2.53;;
24555;SDS011;12725;49.440;10.954;2023-06-22T22:12:51;9.05;;;2.28;;
24555;SDS011;12725;49.440;10.954;2023-06-22T22:16:52;1.83;;;1.30;;
24555;SDS011;12725;49.440;10.954;2023-06-22T22:20:52;7.53;;;2.07;;
24555;SDS011;12725;49.440;10.954;2023-06-22T22:24:52;4.57;;;2.47;;
24555;SDS011;12725;49.440;10.954;2023-06-22T22:28:53;5.60;;;2.13;;
24555;SDS011;12725;49.440;10.954;2023-06-22T22:32:53;9.50;;;3.87;;
24555;SDS011;12725;49.440;10.954;2023-06-22T22:36:53;2.63;;;1.50;;
24555;SDS011;12725;49.440;10.954;2023-06-22T22:40:54;6.35;;;1.77;;
24555;SDS011;12725;49.440;10.954;2023-06-22T22:44:54;12.97;;;3.37;;
24555;SDS011;12725;49.440;10.954;2023-06-22T22:48:55;4.53;;;2.00;;
24555;SDS011;12725;49.440;10.954;2023-06-22T22:52:55;3.93;;;2.13;;
24555;SDS011;12725;49.440;10.954;2023-06-22T22:56:55;5.85;;;2.08;;
24555;SDS011;12725;49.440;10.954;2023-06-22T23:00:57;8.23;;;1.80;;
24555;SDS011;12725;49.440;10.954;2023-06-22T23:04:59;2.35;;;1.90;;
24555;SDS011;12725;49.440;10.954;2023-06-22T23:09:00;3.17;;;1.75;;
24555;SDS011;12725;49.440;10.954;2023-06-22T23:13:00;3.72;;;2.08;;
24555;SDS011;12725;49.440;10.954;2023-06-22T23:17:00;3.83;;;1.40;;
24555;SDS011;12725;49.440;10.954;2023-06-22T23:21:01;3.17;;;2.07;;
24555;SDS011;12725;49.440;10.954;2023-06-22T23:25:03;6.90;;;1.80;;
24555;SDS011;12725;49.440;10.954;2023-06-22T23:29:04;8.85;;;2.20;;
24555;SDS011;12725;49.440;10.954;2023-06-22T23:33:05;4.40;;;2.10;;
24555;SDS011;12725;49.440;10.954;2023-06-22T23:37:05;2.97;;;1.67;;
24555;SDS011;12725;49.440;10.954;2023-06-22T23:41:05;6.07;;;2.60;;
24555;SDS011;12725;49.440;10.954;2023-06-22T23:45:10;5.05;;;2.17;;
24555;SDS011;12725;49.440;10.954;2023-06-22T23:49:11;4.10;;;2.17;;
24555;SDS011;12725;49.440;10.954;2023-06-22T23:53:11;7.38;;;2.30;;
24555;SDS011;12725;49.440;10.954;2023-06-22T23:57:13;1.58;;;0.80;;
